Time;durP1;ratioP1;P1;durP2;ratioP2;P2;SDS_P1;SDS_P2;PMS_P1;PMS_P2;Temp;Humidity;BMP_temperature;BMP_pressure;BME280_temperature;BME280_humidity;BME280_pressure;Samples;Min_cycle;Max_cycle;Signal;HPM_P1;HPM_P2
2021/07/19 04:02:20;;;;;;;5.40;3.83;;;16.60;99.90;;;;;;5167277;23;20543;-68
2021/07/19 04:04:54;;;;;;;4.90;4.10;;;16.60;99.90;;;;;;4988635;28;20827;-69
2021/07/19 04:07:21;;;;;;;7.47;3.80;;;16.60;99.90;;;;;;4989930;28;20471;-70
2021/07/19 04:09:48;;;;;;;10.83;3.53;;;16.60;99.90;;;;;;4992876;28;20463;-70
2021/07/19 04:12:16;;;;;;;3.93;3.73;;;16.60;99.90;;;;;;4993119;28;20487;-69
2021/07/19 04:14:45;;;;;;;5.93;4.37;;;16.70;99.90;;;;;;4992440;28;20939;-70
2021/07/19 04:17:12;;;;;;;7.43;3.90;;;16.60;99.90;;;;;;4993367;28;20526;-69
2021/07/19 04:19:43;;;;;;;7.77;4.77;;;16.60;99.90;;;;;;4992640;28;20537;-70
2021/07/19 04:22:11;;;;;;;7.67;5.60;;;16.70;99.90;;;;;;4993119;28;20478;-69
2021/07/19 04:24:37;;;;;;;5.03;3.47;;;16.70;99.90;;;;;;4992717;28;20486;-70
2021/07/19 04:27:05;;;;;;;7.07;4.57;;;16.80;99.90;;;;;;4993085;28;20517;-70
2021/07/19 04:29:31;;;;;;;4.57;4.20;;;16.80;99.90;;;;;;4992772;28;20471;-70
2021/07/19 04:31:59;;;;;;;6.80;4.47;;;16.80;99.90;;;;;;4992634;28;20478;-69
2021/07/19 04:34:27;;;;;;;7.60;3.80;;;16.80;99.90;;;;;;4992981;28;20777;-70
2021/07/19 04:36:59;;;;;;;7.70;4.10;;;16.90;99.90;;;;;;4992950;28;20521;-69
2021/07/19 04:39:26;;;;;;;4.67;3.63;;;16.90;99.90;;;;;;4992698;28;20521;-70
2021/07/19 04:41:53;;;;;;;4.77;4.37;;;16.90;99.90;;;;;;4992939;28;20514;-70
2021/07/19 04:44:19;;;;;;;9.23;4.10;;;16.90;99.90;;;;;;4990580;28;20506;-70
2021/07/19 04:46:46;;;;;;;12.30;4.60;;;17.00;99.90;;;;;;4992609;28;20510;-70
2021/07/19 04:49:13;;;;;;;6.70;4.33;;;17.00;99.90;;;;;;4992434;28;20498;-70
2021/07/19 04:51:40;;;;;;;3.40;3.10;;;17.00;99.90;;;;;;4992221;28;20486;-69
2021/07/19 04:54:09;;;;;;;8.50;3.97;;;17.00;99.90;;;;;;4981808;28;20459;-70
2021/07/19 04:56:37;;;;;;;4.80;4.00;;;17.00;99.90;;;;;;4988523;28;20463;-70
2021/07/19 04:59:07;;;;;;;5.30;4.03;;;17.10;99.90;;;;;;4991958;28;20988;-70
2021/07/19 05:01:35;;;;;;;7.47;4.20;;;17.10;99.90;;;;;;4992257;28;20603;-70
2021/07/19 05:04:03;;;;;;;8.70;4.43;;;17.10;99.90;;;;;;4991986;28;20920;-70
2021/07/19 05:06:31;;;;;;;4.87;3.53;;;17.10;99.90;;;;;;4991889;28;20517;-70
2021/07/19 05:08:58;;;;;;;3.93;3.57;;;17.20;99.90;;;;;;4992352;28;20793;-70
2021/07/19 05:11:27;;;;;;;4.73;3.53;;;17.20;99.90;;;;;;4991898;28;20588;-70
2021/07/19 05:13:55;;;;;;;5.37;3.70;;;17.30;99.90;;;;;;4991892;28;20466;-70
2021/07/19 05:16:24;;;;;;;4.40;4.00;;;17.40;99.90;;;;;;4991914;28;20463;-70
2021/07/19 05:18:51;;;;;;;4.77;4.10;;;17.40;99.90;;;;;;4992394;28;20459;-70
2021/07/19 05:21:17;;;;;;;4.13;3.83;;;17.50;99.90;;;;;;4992070;28;20482;-70
2021/07/19 05:23:45;;;;;;;6.63;4.53;;;17.60;99.90;;;;;;4994170;28;20971;-70
2021/07/19 05:26:14;;;;;;;4.83;3.63;;;17.70;99.90;;;;;;4995446;28;21018;-70
2021/07/19 05:28:42;;;;;;;4.10;3.70;;;17.80;99.90;;;;;;4995666;28;20504;-70
2021/07/19 05:31:09;;;;;;;4.10;3.70;;;18.00;99.90;;;;;;4995421;28;20490;-70
2021/07/19 05:33:35;;;;;;;5.70;3.97;;;18.10;99.90;;;;;;4995748;28;20450;-70
2021/07/19 05:36:02;;;;;;;4.10;3.80;;;18.20;99.90;;;;;;4995464;28;20911;-70
2021/07/19 05:38:30;;;;;;;4.50;4.10;;;18.20;99.90;;;;;;4996050;28;20467;-70
2021/07/19 05:40:56;;;;;;;4.27;3.97;;;18.20;99.90;;;;;;4995666;28;20479;-70
2021/07/19 05:43:23;;;;;;;4.77;3.70;;;18.20;99.90;;;;;;4995548;28;20488;-70
2021/07/19 05:45:51;;;;;;;4.00;3.70;;;18.20;99.90;;;;;;4993537;28;20471;-70
2021/07/19 05:48:18;;;;;;;4.73;4.10;;;18.20;99.90;;;;;;4995927;28;20475;-70
2021/07/19 05:50:44;;;;;;;6.20;3.60;;;18.10;99.90;;;;;;4995004;28;20482;-70
2021/07/19 05:53:11;;;;;;;7.10;4.27;;;18.10;99.90;;;;;;4995744;28;20463;-70
2021/07/19 05:55:38;;;;;;;4.83;3.50;;;18.20;99.90;;;;;;4995683;28;20463;-69
2021/07/19 05:58:05;;;;;;;8.00;3.90;;;18.20;99.90;;;;;;4995293;28;20516;-70
2021/07/19 06:00:32;;;;;;;4.80;4.03;;;18.10;99.90;;;;;;4993278;28;20479;-69
2021/07/19 06:03:00;;;;;;;4.40;4.10;;;18.20;99.90;;;;;;4994071;28;20459;-69
2021/07/19 06:05:27;;;;;;;5.33;4.40;;;18.20;99.90;;;;;;4994354;28;20455;-69
2021/07/19 06:07:53;;;;;;;4.10;3.90;;;18.20;99.90;;;;;;4994470;28;20514;-69
2021/07/19 06:10:20;;;;;;;5.43;3.83;;;18.20;99.90;;;;;;4994755;28;20938;-69
2021/07/19 06:12:49;;;;;;;3.90;3.60;;;18.10;99.90;;;;;;4994078;28;20479;-69
2021/07/19 06:15:16;;;;;;;6.50;3.60;;;18.10;99.90;;;;;;4994670;28;20459;-69
2021/07/19 06:17:43;;;;;;;3.80;3.70;;;18.10;99.90;;;;;;4995164;28;20870;-69
2021/07/19 06:20:14;;;;;;;4.90;3.73;;;18.10;99.90;;;;;;4996289;28;20612;-70
2021/07/19 06:22:42;;;;;;;5.70;3.90;;;18.10;99.90;;;;;;4997272;28;20569;-70
2021/07/19 06:25:10;;;;;;;3.90;3.60;;;18.20;99.90;;;;;;4997550;28;20482;-70
2021/07/19 06:27:37;;;;;;;4.03;3.73;;;18.30;99.90;;;;;;4997020;28;20467;-71
2021/07/19 06:30:05;;;;;;;3.83;3.53;;;18.40;99.90;;;;;;4995743;28;20475;-70
2021/07/19 06:32:32;;;;;;;4.20;3.47;;;18.50;99.90;;;;;;4993678;28;20459;-70
2021/07/19 06:34:59;;;;;;;4.10;3.80;;;18.60;99.90;;;;;;4994520;28;20500;-71
2021/07/19 06:37:27;;;;;;;7.90;5.23;;;18.60;99.90;;;;;;4995020;28;20919;-70
2021/07/19 06:39:53;;;;;;;3.53;3.33;;;18.70;99.90;;;;;;4994745;28;20470;-70
2021/07/19 06:42:23;;;;;;;5.07;3.93;;;18.70;99.90;;;;;;4994256;28;20483;-70
2021/07/19 06:44:52;;;;;;;3.37;3.07;;;18.80;99.90;;;;;;4994817;28;20475;-71
2021/07/19 06:47:19;;;;;;;4.73;4.20;;;18.90;99.90;;;;;;4995047;28;20828;-72
2021/07/19 06:49:46;;;;;;;4.07;3.77;;;18.90;99.90;;;;;;4994917;28;20463;-70
2021/07/19 06:52:13;;;;;;;4.53;4.13;;;18.90;99.90;;;;;;4994724;28;20578;-70
2021/07/19 06:54:41;;;;;;;5.80;3.70;;;19.00;99.90;;;;;;4990358;28;20455;-70
2021/07/19 06:57:08;;;;;;;4.07;3.77;;;19.10;99.90;;;;;;4975272;28;20482;-69
2021/07/19 06:59:34;;;;;;;4.50;4.00;;;19.10;99.90;;;;;;4983421;28;20455;-69
2021/07/19 07:02:01;;;;;;;5.37;4.30;;;19.10;99.90;;;;;;4993454;28;20502;-68
2021/07/19 07:04:28;;;;;;;4.30;3.90;;;19.10;99.90;;;;;;4993762;28;20537;-69
2021/07/19 07:06:55;;;;;;;5.63;3.93;;;19.10;99.90;;;;;;4994020;28;20463;-69
2021/07/19 07:09:21;;;;;;;5.20;4.53;;;19.10;99.90;;;;;;4994128;28;20468;-69
2021/07/19 07:11:50;;;;;;;4.70;4.37;;;19.20;99.90;;;;;;4994352;28;20482;-70
2021/07/19 07:14:16;;;;;;;4.47;4.07;;;19.20;99.90;;;;;;4992948;28;20828;-68
2021/07/19 07:16:43;;;;;;;4.73;4.20;;;19.20;99.90;;;;;;4994450;28;20470;-70
2021/07/19 07:19:10;;;;;;;4.50;4.10;;;19.10;99.90;;;;;;4994195;28;20554;-68
2021/07/19 07:21:37;;;;;;;4.40;4.07;;;19.10;99.90;;;;;;4992812;28;20536;-68
2021/07/19 07:24:04;;;;;;;4.67;4.17;;;19.00;99.90;;;;;;4981429;28;21002;-69
2021/07/19 07:26:31;;;;;;;4.20;3.90;;;19.00;99.90;;;;;;4980122;28;20534;-69
2021/07/19 07:28:59;;;;;;;6.60;4.77;;;19.00;99.90;;;;;;4993600;28;20538;-69
2021/07/19 07:31:27;;;;;;;6.43;3.90;;;19.10;99.90;;;;;;4993029;28;20852;-68
2021/07/19 07:33:55;;;;;;;4.27;3.87;;;19.20;99.90;;;;;;4994446;28;21054;-71
2021/07/19 07:36:21;;;;;;;4.37;4.03;;;19.30;99.90;;;;;;4993919;28;20451;-71
2021/07/19 07:38:48;;;;;;;4.53;4.20;;;19.30;99.90;;;;;;4993382;28;20509;-71
2021/07/19 07:41:15;;;;;;;5.17;4.00;;;19.30;99.90;;;;;;4993490;28;20494;-71
2021/07/19 07:43:41;;;;;;;4.67;4.30;;;19.20;99.90;;;;;;4991389;28;20458;-71
2021/07/19 07:46:10;;;;;;;5.17;4.20;;;19.30;99.90;;;;;;4980051;28;20517;-71
2021/07/19 07:48:37;;;;;;;7.37;4.53;;;19.20;99.90;;;;;;4993637;28;20459;-71
2021/07/19 07:51:04;;;;;;;4.70;4.40;;;19.20;99.90;;;;;;4994039;28;20483;-71
2021/07/19 07:53:31;;;;;;;4.20;3.53;;;19.30;99.90;;;;;;4993770;28;20458;-70
2021/07/19 07:55:58;;;;;;;4.73;4.13;;;19.50;99.90;;;;;;4993784;28;20455;-71
2021/07/19 07:58:24;;;;;;;5.00;4.40;;;19.70;99.90;;;;;;4992956;28;20538;-71
2021/07/19 08:00:51;;;;;;;6.40;4.00;;;19.60;99.90;;;;;;4993052;28;20491;-70
2021/07/19 08:03:20;;;;;;;5.90;5.13;;;19.70;99.90;;;;;;4993560;28;20467;-71
2021/07/19 08:05:47;;;;;;;4.67;3.90;;;19.80;99.90;;;;;;4993281;28;20494;-70
2021/07/19 08:08:14;;;;;;;4.97;4.57;;;20.00;99.90;;;;;;4993410;28;20467;-71
2021/07/19 08:10:41;;;;;;;5.87;4.20;;;20.10;99.90;;;;;;4993119;28;20494;-70
2021/07/19 08:13:08;;;;;;;5.23;4.73;;;20.10;99.90;;;;;;4992656;28;20463;-71
2021/07/19 08:15:37;;;;;;;5.07;4.70;;;20.20;99.90;;;;;;4992936;28;20463;-71
2021/07/19 08:18:04;;;;;;;5.13;4.70;;;20.30;99.90;;;;;;4992760;28;20514;-71
2021/07/19 08:20:32;;;;;;;5.40;4.40;;;20.50;99.90;;;;;;4993135;28;20546;-70
2021/07/19 08:22:59;;;;;;;5.03;4.63;;;20.50;99.90;;;;;;4992058;28;20519;-71
2021/07/19 08:25:26;;;;;;;4.60;4.20;;;20.40;99.90;;;;;;4993036;28;20486;-70
2021/07/19 08:27:52;;;;;;;5.37;4.87;;;20.50;99.90;;;;;;4986088;28;20459;-71
2021/07/19 08:30:19;;;;;;;4.50;4.10;;;20.50;99.90;;;;;;4981471;28;20568;-71
2021/07/19 08:32:46;;;;;;;4.97;4.07;;;20.50;99.90;;;;;;4991453;28;20485;-71
2021/07/19 08:35:15;;;;;;;4.73;4.30;;;20.60;99.90;;;;;;4987673;28;20935;-69
2021/07/19 08:37:45;;;;;;;6.93;3.83;;;20.60;99.90;;;;;;4993047;28;20462;-69
2021/07/19 08:40:14;;;;;;;3.30;3.20;;;20.70;99.90;;;;;;4993118;28;20473;-69
2021/07/19 08:42:41;;;;;;;4.30;4.10;;;20.50;99.90;;;;;;4991998;28;20878;-70
2021/07/19 08:45:10;;;;;;;4.20;3.80;;;20.40;99.90;;;;;;4991861;28;20499;-70
2021/07/19 08:47:37;;;;;;;4.60;3.93;;;20.40;99.90;;;;;;4992971;28;20517;-70
2021/07/19 08:50:05;;;;;;;5.30;4.00;;;20.40;99.90;;;;;;4992941;28;20966;-71
2021/07/19 08:52:32;;;;;;;5.37;4.63;;;20.50;99.90;;;;;;4992151;28;20479;-71
2021/07/19 08:55:00;;;;;;;4.20;4.00;;;20.60;99.90;;;;;;4992763;28;20562;-71
2021/07/19 08:57:28;;;;;;;4.30;3.90;;;20.80;99.90;;;;;;4993904;28;20509;-69
2021/07/19 08:59:58;;;;;;;4.73;4.27;;;21.00;99.90;;;;;;4995814;28;21005;-70
2021/07/19 09:02:24;;;;;;;4.60;4.20;;;21.10;99.90;;;;;;4995939;28;20494;-71
2021/07/19 09:04:51;;;;;;;5.47;3.93;;;21.30;99.90;;;;;;4996563;28;20489;-70
2021/07/19 09:07:19;;;;;;;4.47;4.00;;;21.20;99.90;;;;;;4996518;28;20533;-71
2021/07/19 09:09:45;;;;;;;7.53;5.20;;;21.20;99.90;;;;;;4996604;28;20521;-70
2021/07/19 09:12:14;;;;;;;4.17;3.90;;;21.40;99.90;;;;;;4994251;28;20887;-71
2021/07/19 09:14:47;;;;;;;4.23;3.93;;;21.40;99.90;;;;;;4994788;28;20474;-70
2021/07/19 09:17:22;;;;;;;5.97;3.80;;;21.40;99.90;;;;;;4996709;28;20574;-70
2021/07/19 09:19:49;;;;;;;4.10;3.70;;;21.30;99.90;;;;;;4996029;28;20977;-68
2021/07/19 09:22:23;;;;;;;4.07;3.83;;;21.20;99.90;;;;;;4996104;28;20529;-69
2021/07/19 09:24:49;;;;;;;4.50;4.20;;;21.10;99.90;;;;;;4990830;28;20491;-69
2021/07/19 09:27:20;;;;;;;4.20;3.90;;;21.00;99.90;;;;;;4995873;28;20521;-69
2021/07/19 09:29:48;;;;;;;3.50;3.40;;;20.80;99.90;;;;;;4995798;28;20478;-70
2021/07/19 09:32:15;;;;;;;3.80;3.60;;;20.70;99.90;;;;;;4976550;28;20487;-69
2021/07/19 09:34:42;;;;;;;5.63;4.60;;;20.70;99.90;;;;;;4994868;28;20463;-70
2021/07/19 09:37:11;;;;;;;4.90;4.57;;;20.70;99.90;;;;;;4997611;28;20491;-71
2021/07/19 09:39:43;;;;;;;4.03;3.73;;;20.80;99.90;;;;;;4997915;28;20853;-69
2021/07/19 09:42:12;;;;;;;4.50;4.00;;;20.90;99.90;;;;;;4995777;28;20515;-70
2021/07/19 09:44:42;;;;;;;4.37;3.97;;;21.00;99.90;;;;;;4987819;28;20501;-70
2021/07/19 09:47:12;;;;;;;4.20;4.00;;;20.90;99.90;;;;;;4995882;28;20525;-70
2021/07/19 09:49:39;;;;;;;4.73;4.30;;;20.80;99.90;;;;;;4995654;28;20852;-70
2021/07/19 09:52:08;;;;;;;4.17;3.80;;;20.60;99.90;;;;;;4995236;28;20537;-70
2021/07/19 09:54:42;;;;;;;4.73;4.43;;;20.60;99.90;;;;;;4996455;28;20777;-70
2021/07/19 09:57:09;;;;;;;4.27;4.00;;;20.60;99.90;;;;;;4995549;28;20939;-68
2021/07/19 09:59:51;;;;;;;4.93;4.40;;;20.70;99.90;;;;;;4984836;28;20462;-70
2021/07/19 10:02:34;;;;;;;4.67;4.20;;;21.00;99.90;;;;;;4997483;28;20490;-71
2021/07/19 10:05:01;;;;;;;4.17;3.87;;;21.10;99.90;;;;;;4979051;28;20475;-70
2021/07/19 10:07:28;;;;;;;4.10;3.90;;;21.20;99.90;;;;;;4995569;28;20841;-70
2021/07/19 10:09:56;;;;;;;4.03;3.70;;;21.10;99.90;;;;;;4994898;28;20462;-69
2021/07/19 10:12:23;;;;;;;4.27;4.07;;;21.10;99.90;;;;;;4994579;28;20475;-70
2021/07/19 10:14:52;;;;;;;4.40;4.00;;;21.20;99.90;;;;;;4994575;28;20517;-68
2021/07/19 10:17:19;;;;;;;5.50;4.23;;;21.20;99.90;;;;;;4994586;28;20471;-67
2021/07/19 10:19:46;;;;;;;4.67;4.37;;;21.00;99.90;;;;;;4995789;28;20467;-67
2021/07/19 10:22:14;;;;;;;3.93;3.80;;;20.90;99.90;;;;;;4997034;28;20829;-69
2021/07/19 10:24:41;;;;;;;5.03;3.90;;;21.10;99.90;;;;;;4996375;28;20486;-68
2021/07/19 10:27:17;;;;;;;3.70;3.50;;;21.20;99.90;;;;;;4994805;28;20498;-69
2021/07/19 10:29:45;;;;;;;4.10;3.90;;;21.40;99.90;;;;;;4994653;28;20977;-70
2021/07/19 10:32:14;;;;;;;4.23;3.90;;;21.50;99.90;;;;;;4994672;28;20483;-70
2021/07/19 10:34:42;;;;;;;4.63;4.33;;;21.40;99.90;;;;;;4995014;28;20466;-71
2021/07/19 10:37:16;;;;;;;4.23;3.83;;;21.30;99.90;;;;;;4994904;28;20562;-71
2021/07/19 10:39:45;;;;;;;4.63;4.10;;;21.20;99.90;;;;;;4994420;28;20458;-71
2021/07/19 10:42:12;;;;;;;5.30;4.33;;;21.20;99.90;;;;;;4994700;28;20825;-70
2021/07/19 10:44:43;;;;;;;3.70;3.40;;;21.10;99.90;;;;;;4993218;28;20467;-69
2021/07/19 10:47:12;;;;;;;5.70;3.97;;;21.00;99.90;;;;;;4994759;28;20459;-68
2021/07/19 10:49:41;;;;;;;3.80;3.50;;;20.90;99.90;;;;;;4994333;28;20553;-68
2021/07/19 10:52:14;;;;;;;4.23;3.93;;;20.90;99.90;;;;;;4994205;28;20478;-68
2021/07/19 10:54:49;;;;;;;3.93;3.63;;;20.90;99.90;;;;;;4993850;28;20458;-68
2021/07/19 10:57:18;;;;;;;3.17;2.90;;;20.90;99.90;;;;;;4994248;28;20541;-68
2021/07/19 10:59:46;;;;;;;3.87;3.53;;;20.70;99.90;;;;;;4993459;28;20498;-68
2021/07/19 11:02:28;;;;;;;3.43;3.30;;;20.60;99.90;;;;;;4994055;28;20490;-68
2021/07/19 11:04:56;;;;;;;3.60;3.40;;;20.80;99.90;;;;;;4993523;28;20475;-71
2021/07/19 11:07:24;;;;;;;3.73;3.50;;;20.80;99.90;;;;;;4994311;28;20459;-70
2021/07/19 11:09:51;;;;;;;3.63;3.47;;;20.90;99.90;;;;;;4994020;28;20574;-70
2021/07/19 11:12:18;;;;;;;4.63;4.07;;;21.00;99.90;;;;;;4990064;28;20983;-70
2021/07/19 11:14:47;;;;;;;5.53;4.47;;;21.10;99.90;;;;;;4990907;28;20467;-71
2021/07/19 11:17:15;;;;;;;4.07;3.77;;;21.20;99.90;;;;;;4995096;28;20561;-70
2021/07/19 11:19:42;;;;;;;4.53;4.00;;;21.20;99.90;;;;;;4992941;28;20896;-69
2021/07/19 11:22:13;;;;;;;4.03;3.63;;;21.10;99.90;;;;;;4993090;28;20483;-68
2021/07/19 11:24:42;;;;;;;4.30;4.00;;;21.20;99.90;;;;;;4993711;28;20463;-68
2021/07/19 11:27:10;;;;;;;4.30;4.00;;;21.30;99.90;;;;;;4994357;28;20617;-68
2021/07/19 11:29:38;;;;;;;4.23;3.93;;;21.30;99.90;;;;;;4992972;28;20490;-68
2021/07/19 11:32:07;;;;;;;4.30;4.00;;;21.40;99.90;;;;;;4993361;28;20545;-68
2021/07/19 11:34:35;;;;;;;4.47;4.17;;;21.40;99.90;;;;;;4993594;28;20462;-68
2021/07/19 11:37:02;;;;;;;4.33;3.90;;;21.60;99.90;;;;;;4993326;28;20466;-68
2021/07/19 11:39:41;;;;;;;3.60;3.50;;;21.70;99.90;;;;;;4993118;28;20462;-68
2021/07/19 11:42:08;;;;;;;4.47;4.00;;;21.70;99.90;;;;;;4990051;28;20475;-67
2021/07/19 11:44:34;;;;;;;3.70;3.40;;;21.70;99.90;;;;;;4991047;28;20541;-67
2021/07/19 11:47:03;;;;;;;3.70;3.27;;;21.70;99.90;;;;;;4973891;28;20495;-68
2021/07/19 11:49:30;;;;;;;6.53;4.30;;;21.50;99.90;;;;;;4974678;28;20475;-70
2021/07/19 11:51:58;;;;;;;4.33;4.03;;;21.30;99.90;;;;;;4993738;28;20490;-69
2021/07/19 11:54:25;;;;;;;3.87;3.67;;;21.30;99.90;;;;;;4993344;28;20498;-67
2021/07/19 11:56:55;;;;;;;3.50;3.20;;;21.20;99.90;;;;;;4993053;28;20451;-66
2021/07/19 11:59:22;;;;;;;3.83;3.60;;;21.20;99.90;;;;;;4991413;28;20963;-67
2021/07/19 12:01:56;;;;;;;4.20;3.90;;;21.10;99.90;;;;;;4992546;28;20493;-68
2021/07/19 12:04:24;;;;;;;4.43;4.03;;;21.20;99.90;;;;;;4990032;28;20889;-68
2021/07/19 12:06:52;;;;;;;3.83;3.60;;;21.30;99.90;;;;;;4993162;28;20832;-68
2021/07/19 12:09:20;;;;;;;4.33;3.60;;;21.50;99.90;;;;;;4992817;28;20490;-69
2021/07/19 12:11:54;;;;;;;4.20;3.80;;;21.70;99.90;;;;;;4973974;28;20515;-68
2021/07/19 12:14:21;;;;;;;5.00;3.80;;;21.90;99.90;;;;;;4988813;28;20513;-68
2021/07/19 12:16:48;;;;;;;3.83;3.27;;;21.90;99.90;;;;;;4992922;28;20500;-67
2021/07/19 12:19:17;;;;;;;4.10;3.40;;;21.90;99.90;;;;;;4992904;28;20802;-68
2021/07/19 12:21:45;;;;;;;5.20;3.27;;;21.90;99.90;;;;;;4992649;28;21006;-67
2021/07/19 12:24:14;;;;;;;3.83;3.63;;;21.90;99.90;;;;;;4991632;28;20472;-68
2021/07/19 12:26:43;;;;;;;4.57;4.17;;;21.80;99.90;;;;;;4992567;28;20584;-68
2021/07/19 12:29:13;;;;;;;4.20;3.90;;;21.80;99.90;;;;;;4992643;28;20482;-68
2021/07/19 12:31:47;;;;;;;4.10;3.80;;;21.80;99.90;;;;;;4991874;28;20491;-68
2021/07/19 12:34:15;;;;;;;3.73;3.63;;;21.70;99.90;;;;;;4992678;28;20872;-69
2021/07/19 12:36:46;;;;;;;3.43;3.30;;;21.80;99.90;;;;;;4992630;28;20820;-68
2021/07/19 12:39:16;;;;;;;3.70;3.50;;;21.80;99.90;;;;;;4993399;28;20482;-68
2021/07/19 12:41:44;;;;;;;3.80;3.50;;;21.90;99.90;;;;;;4992671;28;20540;-70
2021/07/19 12:44:14;;;;;;;3.77;3.40;;;22.00;99.90;;;;;;4991488;28;20894;-69
2021/07/19 12:46:42;;;;;;;3.53;3.33;;;22.20;99.90;;;;;;4992763;28;20544;-70
2021/07/19 12:49:09;;;;;;;3.73;3.53;;;22.30;99.90;;;;;;4993483;28;20478;-70
2021/07/19 12:51:37;;;;;;;4.00;3.80;;;22.30;99.90;;;;;;4993114;28;20514;-71
2021/07/19 12:54:06;;;;;;;4.30;3.97;;;22.50;99.90;;;;;;4992035;28;20459;-69
2021/07/19 12:56:35;;;;;;;3.70;3.20;;;22.60;99.90;;;;;;4992760;28;20470;-69
2021/07/19 12:59:03;;;;;;;4.47;2.83;;;22.70;99.90;;;;;;4992724;28;20470;-67
2021/07/19 13:01:33;;;;;;;3.73;3.30;;;22.20;99.90;;;;;;4992351;28;20497;-67
2021/07/19 13:04:01;;;;;;;3.30;3.00;;;22.00;99.90;;;;;;4993391;28;20570;-68
2021/07/19 13:06:28;;;;;;;4.70;3.83;;;21.80;99.90;;;;;;4993571;28;20509;-67
2021/07/19 13:08:55;;;;;;;5.97;3.30;;;21.80;99.90;;;;;;4993188;28;20475;-69
2021/07/19 13:11:21;;;;;;;3.50;3.30;;;22.00;99.90;;;;;;4992166;28;20491;-68
2021/07/19 13:13:48;;;;;;;3.73;3.53;;;22.00;99.90;;;;;;4980340;28;20462;-68
2021/07/19 13:16:22;;;;;;;3.73;3.50;;;22.00;99.90;;;;;;4991834;28;20462;-67
2021/07/19 13:18:57;;;;;;;3.27;2.97;;;21.80;99.90;;;;;;4992290;28;20490;-68
2021/07/19 13:21:24;;;;;;;3.27;2.97;;;21.90;99.90;;;;;;4992098;28;20507;-68
2021/07/19 13:23:51;;;;;;;2.83;2.60;;;21.60;99.90;;;;;;4992560;28;20462;-68
2021/07/19 13:26:18;;;;;;;3.30;3.20;;;21.50;99.90;;;;;;4992281;28;20483;-68
2021/07/19 13:28:45;;;;;;;3.00;2.80;;;21.50;99.90;;;;;;4992647;28;20854;-68
2021/07/19 13:31:12;;;;;;;3.17;3.07;;;21.40;99.90;;;;;;4992390;28;20556;-68
2021/07/19 13:33:43;;;;;;;2.67;2.57;;;21.60;99.90;;;;;;4992103;28;20537;-67
2021/07/19 13:36:11;;;;;;;3.07;2.83;;;21.80;99.90;;;;;;4992029;28;20993;-67
2021/07/19 13:38:40;;;;;;;2.50;2.40;;;22.00;99.90;;;;;;4992395;28;20514;-68
2021/07/19 13:41:07;;;;;;;3.60;2.80;;;22.20;99.90;;;;;;4992752;28;20483;-68
2021/07/19 13:43:39;;;;;;;3.87;2.90;;;22.30;99.90;;;;;;4991476;28;20471;-68
2021/07/19 13:46:06;;;;;;;4.07;3.67;;;22.30;99.90;;;;;;4980936;28;20529;-68
2021/07/19 13:48:34;;;;;;;4.30;3.13;;;22.20;99.90;;;;;;4996021;28;20485;-68
2021/07/19 13:51:02;;;;;;;2.93;2.73;;;22.20;99.90;;;;;;4995800;28;20494;-69
2021/07/19 13:53:30;;;;;;;4.53;2.47;;;22.30;99.90;;;;;;4995340;28;20506;-68
2021/07/19 13:55:59;;;;;;;3.40;3.20;;;22.10;99.90;;;;;;4995583;28;20454;-67
2021/07/19 13:58:26;;;;;;;2.80;2.60;;;21.90;99.90;;;;;;4995159;28;20482;-67
2021/07/19 14:00:53;;;;;;;3.07;2.87;;;21.70;99.90;;;;;;4995272;28;20526;-69
2021/07/19 14:03:20;;;;;;;3.23;3.03;;;21.50;99.90;;;;;;4995494;28;20463;-68
2021/07/19 14:05:47;;;;;;;3.20;3.00;;;21.50;99.90;;;;;;4991468;28;20463;-69
2021/07/19 14:08:14;;;;;;;4.20;3.03;;;21.40;99.90;;;;;;4995579;28;20814;-67
2021/07/19 14:10:42;;;;;;;3.23;3.13;;;21.30;99.90;;;;;;4995633;28;20545;-68
2021/07/19 14:13:10;;;;;;;3.23;2.83;;;21.30;99.90;;;;;;4995097;28;20517;-67
2021/07/19 14:15:37;;;;;;;3.23;2.93;;;21.40;99.90;;;;;;4994881;28;20490;-67
2021/07/19 14:18:04;;;;;;;3.47;3.27;;;21.60;99.90;;;;;;4995275;28;20841;-67
2021/07/19 14:20:32;;;;;;;2.67;2.57;;;21.70;99.90;;;;;;4995184;28;20490;-67
2021/07/19 14:22:58;;;;;;;2.57;2.37;;;21.80;99.90;;;;;;4995142;28;20831;-67
2021/07/19 14:25:26;;;;;;;2.57;2.50;;;21.80;99.90;;;;;;4995056;28;20470;-68
2021/07/19 14:27:55;;;;;;;2.63;2.53;;;21.70;99.90;;;;;;4995201;28;20516;-68
2021/07/19 14:30:22;;;;;;;2.73;2.67;;;21.90;99.90;;;;;;4994912;28;20479;-69
2021/07/19 14:32:50;;;;;;;3.30;2.83;;;21.90;99.90;;;;;;4993888;28;21010;-68
2021/07/19 14:35:17;;;;;;;2.47;2.37;;;21.90;99.90;;;;;;4975749;28;20489;-70
2021/07/19 14:37:44;;;;;;;2.40;2.40;;;22.00;99.90;;;;;;4993326;28;20458;-68
2021/07/19 14:40:14;;;;;;;4.37;3.03;;;21.90;99.90;;;;;;4995407;28;20470;-69
2021/07/19 14:42:42;;;;;;;2.43;2.30;;;22.00;99.90;;;;;;4994847;28;20462;-71
2021/07/19 14:45:11;;;;;;;2.73;2.63;;;22.10;99.90;;;;;;4994754;28;20471;-70
2021/07/19 14:47:38;;;;;;;2.60;2.50;;;22.20;99.90;;;;;;4994512;28;20482;-69
2021/07/19 14:50:05;;;;;;;2.40;2.30;;;22.30;99.90;;;;;;4995382;28;20474;-70
2021/07/19 14:52:32;;;;;;;3.40;2.77;;;22.30;99.90;;;;;;4994668;28;20507;-70
2021/07/19 14:54:58;;;;;;;2.70;2.60;;;22.20;99.90;;;;;;4994236;28;20513;-71
2021/07/19 14:57:25;;;;;;;2.60;2.50;;;22.20;99.90;;;;;;4994226;28;20463;-71
2021/07/19 14:59:52;;;;;;;2.97;2.50;;;22.30;99.90;;;;;;4994209;28;20466;-70
2021/07/19 15:02:20;;;;;;;2.07;1.97;;;22.20;99.90;;;;;;4993907;28;20498;-70
2021/07/19 15:04:46;;;;;;;2.23;2.13;;;22.10;99.90;;;;;;4994637;28;20521;-70
2021/07/19 15:07:13;;;;;;;1.90;1.80;;;21.90;99.90;;;;;;4994214;28;20533;-71
2021/07/19 15:09:39;;;;;;;2.67;2.47;;;21.90;99.90;;;;;;4993743;28;20520;-70
2021/07/19 15:12:07;;;;;;;1.83;1.83;;;21.80;99.90;;;;;;4987417;28;20495;-70
2021/07/19 15:14:34;;;;;;;2.13;2.03;;;21.90;99.90;;;;;;4985888;28;20521;-71
2021/07/19 15:17:01;;;;;;;2.20;2.13;;;21.90;99.90;;;;;;4994374;28;20490;-70
2021/07/19 15:19:31;;;;;;;3.03;1.80;;;21.80;99.90;;;;;;4993505;28;20513;-70
2021/07/19 15:21:59;;;;;;;2.67;2.23;;;21.90;99.90;;;;;;4994181;28;20487;-70
2021/07/19 15:24:25;;;;;;;2.27;2.17;;;21.90;99.90;;;;;;4993932;28;20502;-70
2021/07/19 15:26:52;;;;;;;2.70;2.60;;;22.00;99.90;;;;;;4993980;28;20995;-70
2021/07/19 15:29:19;;;;;;;2.30;2.20;;;21.90;99.90;;;;;;4993070;28;20633;-68
2021/07/19 15:31:46;;;;;;;2.33;2.33;;;21.90;99.90;;;;;;4993931;28;20487;-68
2021/07/19 15:34:12;;;;;;;2.40;2.30;;;21.90;99.90;;;;;;4992792;28;20983;-70
2021/07/19 15:36:42;;;;;;;2.50;2.30;;;21.90;99.90;;;;;;4993438;28;20479;-70
2021/07/19 15:39:09;;;;;;;4.10;2.80;;;21.80;99.90;;;;;;4993402;28;20467;-69
2021/07/19 15:41:36;;;;;;;2.87;2.77;;;21.70;99.90;;;;;;4994151;28;20823;-70
2021/07/19 15:44:03;;;;;;;3.17;2.90;;;21.70;99.90;;;;;;4993471;28;20463;-69
2021/07/19 15:46:29;;;;;;;2.30;2.20;;;21.80;99.90;;;;;;4993385;28;20529;-69
2021/07/19 15:48:56;;;;;;;3.33;2.50;;;21.80;99.90;;;;;;4993953;28;20467;-69
2021/07/19 15:51:23;;;;;;;2.83;2.50;;;21.70;99.90;;;;;;4993719;28;21018;-71
2021/07/19 15:53:51;;;;;;;3.10;2.80;;;21.60;99.90;;;;;;4993705;28;20467;-70
2021/07/19 15:56:17;;;;;;;5.07;4.63;;;21.50;99.90;;;;;;4993833;28;20463;-70
2021/07/19 15:58:44;;;;;;;3.87;2.73;;;21.40;99.90;;;;;;4993612;28;20470;-70
2021/07/19 16:01:11;;;;;;;3.43;2.97;;;21.40;99.90;;;;;;4992233;28;20511;-70
2021/07/19 16:03:37;;;;;;;2.97;2.77;;;21.50;99.90;;;;;;4988918;28;20483;-70
2021/07/19 16:06:04;;;;;;;2.30;2.13;;;21.40;99.90;;;;;;4982047;28;20463;-69
2021/07/19 16:08:31;;;;;;;2.40;2.30;;;21.30;99.90;;;;;;4993566;28;20475;-71
2021/07/19 16:10:59;;;;;;;2.90;2.70;;;21.20;99.90;;;;;;4994603;28;20483;-70
2021/07/19 16:13:26;;;;;;;2.50;2.40;;;21.10;99.90;;;;;;4993024;28;20463;-70
2021/07/19 16:15:53;;;;;;;2.93;2.30;;;21.10;99.90;;;;;;4992987;28;20463;-71
2021/07/19 16:18:20;;;;;;;3.87;3.23;;;21.10;99.90;;;;;;4993940;28;20535;-70
2021/07/19 16:20:48;;;;;;;3.07;2.50;;;21.10;99.90;;;;;;4993235;28;20494;-71
2021/07/19 16:23:15;;;;;;;3.43;2.80;;;21.00;99.90;;;;;;4993113;28;20471;-70
2021/07/19 16:25:42;;;;;;;3.17;2.97;;;21.00;99.90;;;;;;4992827;28;21071;-69
2021/07/19 16:28:10;;;;;;;5.00;2.93;;;20.90;99.90;;;;;;4979167;28;20885;-70
2021/07/19 16:30:37;;;;;;;3.30;3.00;;;20.90;99.90;;;;;;4992149;28;20491;-70
2021/07/19 16:33:04;;;;;;;3.10;3.00;;;20.90;99.90;;;;;;4989976;28;20476;-70
2021/07/19 16:35:30;;;;;;;2.90;2.70;;;20.90;99.90;;;;;;4973892;28;20464;-71
2021/07/19 16:37:57;;;;;;;2.50;2.40;;;20.90;99.90;;;;;;4991655;28;20514;-71
2021/07/19 16:40:24;;;;;;;2.83;2.67;;;20.90;99.90;;;;;;4992091;28;20990;-70
2021/07/19 16:42:51;;;;;;;3.37;3.17;;;20.80;99.90;;;;;;4992852;28;20458;-70
2021/07/19 16:47:48;;;;;;;3.30;3.13;;;20.70;99.90;;;;;;4992474;28;20606;-71
2021/07/19 16:50:16;;;;;;;3.23;2.90;;;20.70;99.90;;;;;;4993169;28;20505;-70
2021/07/19 16:52:43;;;;;;;3.30;3.10;;;20.70;99.90;;;;;;4992505;28;20466;-70
2021/07/19 16:55:11;;;;;;;2.80;2.60;;;20.70;99.90;;;;;;4993066;28;20517;-71